KSPG/SPG METAR and TAF weather

Enter ICAO airport designator
Station Type Date Time Source
KSPG METAR 2020/10/20 17:53 UTC NOAA

KSPG 201753Z 08013KT 10SM FEW041 SCT080 28/24 A2995 RMK AO2 RAB23E32 SLP141 P0000 60000 T02830244 10294 20256 58017


Station Type Date Time Source
KSPG Decoded METAR 2020/10/20 17:53 UTC NOAA

ST PETERSBURG WHITTED AIRPORT , FL, United States (KSPG) 27-46N 082-38W 2M
Oct 20, 2020 - 01:53 PM EDT / 2020.10.20 1753 UTC
Wind: from the E (080 degrees) at 15 MPH (13 KT):0
Visibility: 10 mile(s):0
Sky conditions: partly cloudy
Precipitation last hour: A trace
Temperature: 82.9 F (28.3 C)
Dew Point: 75.9 F (24.4 C)
Relative Humidity: 79%
Pressure (altimeter): 29.95 in. Hg (1014 hPa)
Pressure tendency: 0.05 inches (1.7 hPa) lower than three hours ago
ob: KSPG 201753Z 08013KT 10SM FEW041 SCT080 28/24 A2995 RMK AO2 RAB23E32 SLP141 P0000 60000 T02830244 10294 20256 58017
cycle: 18

Station Type Date Time Source
KSPG TAF UTC NOAA

Error!

Example: see airport list